sensor_id;sensor_type;location;lat;lon;timestamp;temperature;humidity
24744;DHT22;12844;52.110;5.548;2023-01-19T00:00:11;14.20;48.50
24744;DHT22;12844;52.110;5.548;2023-01-19T00:02:37;14.20;48.60
24744;DHT22;12844;52.110;5.548;2023-01-19T00:05:06;14.20;48.60
24744;DHT22;12844;52.110;5.548;2023-01-19T00:07:32;14.20;48.60
24744;DHT22;12844;52.110;5.548;2023-01-19T00:09:58;14.20;48.40
24744;DHT22;12844;52.110;5.548;2023-01-19T00:12:24;14.20;48.40
24744;DHT22;12844;52.110;5.548;2023-01-19T00:14:49;14.20;48.50
24744;DHT22;12844;52.110;5.548;2023-01-19T00:17:15;14.20;48.40
24744;DHT22;12844;52.110;5.548;2023-01-19T00:19:40;14.20;48.50
24744;DHT22;12844;52.110;5.548;2023-01-19T00:22:06;14.20;48.50
24744;DHT22;12844;52.110;5.548;2023-01-19T00:24:32;14.20;48.40
24744;DHT22;12844;52.110;5.548;2023-01-19T00:26:57;14.20;48.40
24744;DHT22;12844;52.110;5.548;2023-01-19T00:29:23;14.20;48.40
24744;DHT22;12844;52.110;5.548;2023-01-19T00:31:49;14.20;48.50
24744;DHT22;12844;52.110;5.548;2023-01-19T00:34:15;14.20;48.50
24744;DHT22;12844;52.110;5.548;2023-01-19T00:36:40;14.20;48.40
24744;DHT22;12844;52.110;5.548;2023-01-19T00:39:06;14.20;48.40
24744;DHT22;12844;52.110;5.548;2023-01-19T00:41:32;14.20;48.40
24744;DHT22;12844;52.110;5.548;2023-01-19T00:44:16;14.20;48.40
24744;DHT22;12844;52.110;5.548;2023-01-19T00:46:41;14.20;48.40
24744;DHT22;12844;52.110;5.548;2023-01-19T00:49:07;14.10;48.40
24744;DHT22;12844;52.110;5.548;2023-01-19T00:51:32;14.20;48.50
24744;DHT22;12844;52.110;5.548;2023-01-19T00:53:59;14.20;48.60
24744;DHT22;12844;52.110;5.548;2023-01-19T00:56:31;14.20;48.70
24744;DHT22;12844;52.110;5.548;2023-01-19T00:58:57;14.20;48.70
24744;DHT22;12844;52.110;5.548;2023-01-19T01:01:23;14.20;48.70
24744;DHT22;12844;52.110;5.548;2023-01-19T01:03:48;14.20;48.70
24744;DHT22;12844;52.110;5.548;2023-01-19T01:06:14;14.20;48.60
24744;DHT22;12844;52.110;5.548;2023-01-19T01:08:39;14.20;48.60
24744;DHT22;12844;52.110;5.548;2023-01-19T01:11:05;14.20;48.50
24744;DHT22;12844;52.110;5.548;2023-01-19T01:13:30;14.20;48.40
24744;DHT22;12844;52.110;5.548;2023-01-19T01:15:56;14.20;48.40
24744;DHT22;12844;52.110;5.548;2023-01-19T01:18:22;14.20;48.40
24744;DHT22;12844;52.110;5.548;2023-01-19T01:20:48;14.20;48.40
24744;DHT22;12844;52.110;5.548;2023-01-19T01:23:14;14.20;48.40
24744;DHT22;12844;52.110;5.548;2023-01-19T01:25:40;14.20;48.40
24744;DHT22;12844;52.110;5.548;2023-01-19T01:28:07;14.20;48.40
24744;DHT22;12844;52.110;5.548;2023-01-19T01:30:34;14.20;48.40
24744;DHT22;12844;52.110;5.548;2023-01-19T01:32:59;14.20;48.40
24744;DHT22;12844;52.110;5.548;2023-01-19T01:35:25;14.20;48.50
24744;DHT22;12844;52.110;5.548;2023-01-19T01:37:50;14.20;48.40
24744;DHT22;12844;52.110;5.548;2023-01-19T01:40:17;14.20;48.40
24744;DHT22;12844;52.110;5.548;2023-01-19T01:42:43;14.10;48.40
24744;DHT22;12844;52.110;5.548;2023-01-19T01:45:32;14.10;48.40
24744;DHT22;12844;52.110;5.548;2023-01-19T01:50:31;14.10;48.50
24744;DHT22;12844;52.110;5.548;2023-01-19T01:53:04;14.10;48.50
24744;DHT22;12844;52.110;5.548;2023-01-19T01:55:44;14.10;48.50
24744;DHT22;12844;52.110;5.548;2023-01-19T01:58:11;14.10;48.40
24744;DHT22;12844;52.110;5.548;2023-01-19T02:00:39;14.10;48.50
24744;DHT22;12844;52.110;5.548;2023-01-19T02:03:24;14.10;48.50
24744;DHT22;12844;52.110;5.548;2023-01-19T02:05:51;14.10;48.50
24744;DHT22;12844;52.110;5.548;2023-01-19T02:08:21;14.10;48.50
24744;DHT22;12844;52.110;5.548;2023-01-19T02:11:08;14.10;48.50
24744;DHT22;12844;52.110;5.548;2023-01-19T02:13:52;14.10;48.50
24744;DHT22;12844;52.110;5.548;2023-01-19T02:16:18;14.10;48.50
24744;DHT22;12844;52.110;5.548;2023-01-19T02:18:44;14.10;48.50
24744;DHT22;12844;52.110;5.548;2023-01-19T02:23:54;14.10;48.50
24744;DHT22;12844;52.110;5.548;2023-01-19T02:26:23;14.10;48.60
24744;DHT22;12844;52.110;5.548;2023-01-19T02:28:55;14.00;48.60
24744;DHT22;12844;52.110;5.548;2023-01-19T02:31:25;14.00;48.50
24744;DHT22;12844;52.110;5.548;2023-01-19T02:33:51;14.00;48.60
24744;DHT22;12844;52.110;5.548;2023-01-19T02:36:21;14.00;48.50
24744;DHT22;12844;52.110;5.548;2023-01-19T02:38:48;14.00;48.60
24744;DHT22;12844;52.110;5.548;2023-01-19T02:41:18;14.00;48.50
24744;DHT22;12844;52.110;5.548;2023-01-19T02:43:47;14.00;48.60
24744;DHT22;12844;52.110;5.548;2023-01-19T02:46:13;14.00;48.60
24744;DHT22;12844;52.110;5.548;2023-01-19T02:48:40;14.00;48.60
24744;DHT22;12844;52.110;5.548;2023-01-19T02:51:24;14.00;48.70
24744;DHT22;12844;52.110;5.548;2023-01-19T02:54:01;14.00;48.60
24744;DHT22;12844;52.110;5.548;2023-01-19T02:59:24;14.00;48.70
24744;DHT22;12844;52.110;5.548;2023-01-19T03:04:42;14.00;48.80
24744;DHT22;12844;52.110;5.548;2023-01-19T03:07:55;14.00;48.80
24744;DHT22;12844;52.110;5.548;2023-01-19T03:10:13;14.00;48.90
24744;DHT22;12844;52.110;5.548;2023-01-19T03:12:49;14.00;48.90
24744;DHT22;12844;52.110;5.548;2023-01-19T03:15:20;14.00;48.90
24744;DHT22;12844;52.110;5.548;2023-01-19T03:17:49;14.00;49.00
24744;DHT22;12844;52.110;5.548;2023-01-19T03:20:21;14.00;48.90
24744;DHT22;12844;52.110;5.548;2023-01-19T03:22:52;14.00;48.90
24744;DHT22;12844;52.110;5.548;2023-01-19T03:25:20;14.00;49.00
24744;DHT22;12844;52.110;5.548;2023-01-19T03:27:48;14.00;49.00
24744;DHT22;12844;52.110;5.548;2023-01-19T03:30:21;14.00;48.90
24744;DHT22;12844;52.110;5.548;2023-01-19T03:32:51;14.00;48.90
24744;DHT22;12844;52.110;5.548;2023-01-19T03:35:21;14.00;48.80
24744;DHT22;12844;52.110;5.548;2023-01-19T03:37:52;14.00;48.80
24744;DHT22;12844;52.110;5.548;2023-01-19T03:40:18;14.00;48.90
24744;DHT22;12844;52.110;5.548;2023-01-19T03:42:45;14.00;49.20
24744;DHT22;12844;52.110;5.548;2023-01-19T03:45:11;14.00;48.90
24744;DHT22;12844;52.110;5.548;2023-01-19T03:47:38;14.00;48.90
24744;DHT22;12844;52.110;5.548;2023-01-19T03:50:08;14.00;48.90
24744;DHT22;12844;52.110;5.548;2023-01-19T03:52:36;14.00;48.90
24744;DHT22;12844;52.110;5.548;2023-01-19T03:55:03;14.10;48.80
24744;DHT22;12844;52.110;5.548;2023-01-19T03:57:30;14.00;48.80
24744;DHT22;12844;52.110;5.548;2023-01-19T03:59:55;14.10;48.80
24744;DHT22;12844;52.110;5.548;2023-01-19T04:02:22;14.10;48.80
24744;DHT22;12844;52.110;5.548;2023-01-19T04:04:47;14.00;48.80
24744;DHT22;12844;52.110;5.548;2023-01-19T04:07:13;14.00;48.80
24744;DHT22;12844;52.110;5.548;2023-01-19T04:09:39;14.00;48.80
24744;DHT22;12844;52.110;5.548;2023-01-19T04:12:05;14.00;48.80
24744;DHT22;12844;52.110;5.548;2023-01-19T04:14:30;14.00;48.80
24744;DHT22;12844;52.110;5.548;2023-01-19T04:16:56;14.10;48.70
24744;DHT22;12844;52.110;5.548;2023-01-19T04:19:21;14.00;48.70
24744;DHT22;12844;52.110;5.548;2023-01-19T04:21:48;14.00;48.70
24744;DHT22;12844;52.110;5.548;2023-01-19T04:24:17;14.00;48.70
24744;DHT22;12844;52.110;5.548;2023-01-19T04:26:43;14.00;48.80
24744;DHT22;12844;52.110;5.548;2023-01-19T04:29:08;14.00;48.70
24744;DHT22;12844;52.110;5.548;2023-01-19T04:31:34;14.00;48.70
24744;DHT22;12844;52.110;5.548;2023-01-19T04:34:01;14.00;48.70
24744;DHT22;12844;52.110;5.548;2023-01-19T04:36:27;14.00;48.70
24744;DHT22;12844;52.110;5.548;2023-01-19T04:38:53;14.00;48.60
24744;DHT22;12844;52.110;5.548;2023-01-19T04:41:19;14.00;48.60
24744;DHT22;12844;52.110;5.548;2023-01-19T04:43:44;14.00;48.60
24744;DHT22;12844;52.110;5.548;2023-01-19T04:46:12;14.00;48.70
24744;DHT22;12844;52.110;5.548;2023-01-19T04:48:38;14.00;48.70
24744;DHT22;12844;52.110;5.548;2023-01-19T04:51:03;14.00;48.80
24744;DHT22;12844;52.110;5.548;2023-01-19T04:53:29;14.00;48.80
24744;DHT22;12844;52.110;5.548;2023-01-19T04:55:55;13.90;48.80
24744;DHT22;12844;52.110;5.548;2023-01-19T04:58:20;14.00;48.80
24744;DHT22;12844;52.110;5.548;2023-01-19T05:00:46;14.00;48.80
24744;DHT22;12844;52.110;5.548;2023-01-19T05:03:11;14.00;48.80
24744;DHT22;12844;52.110;5.548;2023-01-19T05:05:37;13.90;48.80
24744;DHT22;12844;52.110;5.548;2023-01-19T05:08:02;13.90;48.80
24744;DHT22;12844;52.110;5.548;2023-01-19T05:10:28;13.90;48.80
24744;DHT22;12844;52.110;5.548;2023-01-19T05:12:54;13.90;48.80
24744;DHT22;12844;52.110;5.548;2023-01-19T05:15:19;14.00;48.80
24744;DHT22;12844;52.110;5.548;2023-01-19T05:17:45;13.90;48.90
24744;DHT22;12844;52.110;5.548;2023-01-19T05:20:13;13.90;48.80
24744;DHT22;12844;52.110;5.548;2023-01-19T05:22:38;13.90;48.80
24744;DHT22;12844;52.110;5.548;2023-01-19T05:25:06;13.90;48.90
24744;DHT22;12844;52.110;5.548;2023-01-19T05:27:33;13.90;48.80
24744;DHT22;12844;52.110;5.548;2023-01-19T05:29:58;13.90;48.90
24744;DHT22;12844;52.110;5.548;2023-01-19T05:32:24;13.90;48.90
24744;DHT22;12844;52.110;5.548;2023-01-19T05:34:49;13.90;48.80
24744;DHT22;12844;52.110;5.548;2023-01-19T05:37:15;13.90;48.90
24744;DHT22;12844;52.110;5.548;2023-01-19T05:39:40;13.90;48.90
24744;DHT22;12844;52.110;5.548;2023-01-19T05:42:06;13.90;48.90
24744;DHT22;12844;52.110;5.548;2023-01-19T05:44:31;13.90;48.90
24744;DHT22;12844;52.110;5.548;2023-01-19T05:46:57;13.90;49.00
24744;DHT22;12844;52.110;5.548;2023-01-19T05:49:22;13.90;49.00
24744;DHT22;12844;52.110;5.548;2023-01-19T05:51:48;13.90;49.00
24744;DHT22;12844;52.110;5.548;2023-01-19T05:54:14;13.90;48.90
24744;DHT22;12844;52.110;5.548;2023-01-19T05:56:40;13.90;48.90
24744;DHT22;12844;52.110;5.548;2023-01-19T05:59:06;13.90;48.90
24744;DHT22;12844;52.110;5.548;2023-01-19T06:01:32;13.80;49.00
24744;DHT22;12844;52.110;5.548;2023-01-19T06:04:00;13.80;48.90
24744;DHT22;12844;52.110;5.548;2023-01-19T06:06:25;13.80;49.00
24744;DHT22;12844;52.110;5.548;2023-01-19T06:08:51;13.80;49.00
24744;DHT22;12844;52.110;5.548;2023-01-19T06:11:16;13.80;49.00
24744;DHT22;12844;52.110;5.548;2023-01-19T06:13:42;13.80;49.00
24744;DHT22;12844;52.110;5.548;2023-01-19T06:16:08;13.80;49.00
24744;DHT22;12844;52.110;5.548;2023-01-19T06:18:34;13.80;49.00
24744;DHT22;12844;52.110;5.548;2023-01-19T06:21:04;13.80;49.00
24744;DHT22;12844;52.110;5.548;2023-01-19T06:23:32;13.80;49.00
24744;DHT22;12844;52.110;5.548;2023-01-19T06:25:58;13.80;49.00
24744;DHT22;12844;52.110;5.548;2023-01-19T06:28:24;13.80;49.00
24744;DHT22;12844;52.110;5.548;2023-01-19T06:30:50;13.80;49.00
24744;DHT22;12844;52.110;5.548;2023-01-19T06:33:16;13.80;49.00
24744;DHT22;12844;52.110;5.548;2023-01-19T06:35:47;13.80;49.00
24744;DHT22;12844;52.110;5.548;2023-01-19T06:38:13;13.80;49.00
24744;DHT22;12844;52.110;5.548;2023-01-19T06:40:39;13.80;48.90
24744;DHT22;12844;52.110;5.548;2023-01-19T06:43:06;13.80;49.00
24744;DHT22;12844;52.110;5.548;2023-01-19T06:45:31;13.80;49.00
24744;DHT22;12844;52.110;5.548;2023-01-19T06:47:57;13.80;49.00
24744;DHT22;12844;52.110;5.548;2023-01-19T06:50:23;13.80;49.00
24744;DHT22;12844;52.110;5.548;2023-01-19T06:52:49;13.80;49.00
24744;DHT22;12844;52.110;5.548;2023-01-19T06:55:15;13.80;49.10
24744;DHT22;12844;52.110;5.548;2023-01-19T06:57:41;13.80;49.10
24744;DHT22;12844;52.110;5.548;2023-01-19T07:00:07;13.80;49.10
24744;DHT22;12844;52.110;5.548;2023-01-19T07:02:39;13.80;49.10
24744;DHT22;12844;52.110;5.548;2023-01-19T07:05:05;13.80;49.10
24744;DHT22;12844;52.110;5.548;2023-01-19T07:07:33;13.80;49.00
24744;DHT22;12844;52.110;5.548;2023-01-19T07:09:58;13.80;49.10
24744;DHT22;12844;52.110;5.548;2023-01-19T07:12:24;13.80;49.00
24744;DHT22;12844;52.110;5.548;2023-01-19T07:14:49;13.80;49.10
24744;DHT22;12844;52.110;5.548;2023-01-19T07:17:15;13.80;49.10
24744;DHT22;12844;52.110;5.548;2023-01-19T07:19:41;13.80;49.00
24744;DHT22;12844;52.110;5.548;2023-01-19T07:22:06;13.80;49.00
24744;DHT22;12844;52.110;5.548;2023-01-19T07:24:33;13.80;49.00
24744;DHT22;12844;52.110;5.548;2023-01-19T07:27:46;13.80;49.00
24744;DHT22;12844;52.110;5.548;2023-01-19T07:30:13;13.80;48.90
24744;DHT22;12844;52.110;5.548;2023-01-19T07:32:41;13.80;49.00
24744;DHT22;12844;52.110;5.548;2023-01-19T07:35:08;13.80;49.00
24744;DHT22;12844;52.110;5.548;2023-01-19T07:37:34;13.80;49.00
24744;DHT22;12844;52.110;5.548;2023-01-19T07:40:00;13.80;49.00
24744;DHT22;12844;52.110;5.548;2023-01-19T07:42:25;13.80;49.00
24744;DHT22;12844;52.110;5.548;2023-01-19T07:44:51;13.80;49.00
24744;DHT22;12844;52.110;5.548;2023-01-19T07:47:16;13.70;49.00
24744;DHT22;12844;52.110;5.548;2023-01-19T07:49:42;13.80;49.00
24744;DHT22;12844;52.110;5.548;2023-01-19T07:52:08;13.80;48.90
24744;DHT22;12844;52.110;5.548;2023-01-19T07:54:34;13.80;49.00
24744;DHT22;12844;52.110;5.548;2023-01-19T07:56:59;13.80;49.00
24744;DHT22;12844;52.110;5.548;2023-01-19T07:59:28;13.80;48.90
24744;DHT22;12844;52.110;5.548;2023-01-19T08:02:03;13.80;49.00
24744;DHT22;12844;52.110;5.548;2023-01-19T08:04:28;13.70;49.00
24744;DHT22;12844;52.110;5.548;2023-01-19T08:06:56;13.70;49.00
24744;DHT22;12844;52.110;5.548;2023-01-19T08:09:21;13.70;49.00
24744;DHT22;12844;52.110;5.548;2023-01-19T08:11:48;13.70;49.00
24744;DHT22;12844;52.110;5.548;2023-01-19T08:14:13;13.70;49.00
24744;DHT22;12844;52.110;5.548;2023-01-19T08:16:39;13.70;49.00
24744;DHT22;12844;52.110;5.548;2023-01-19T08:19:04;13.80;49.00
24744;DHT22;12844;52.110;5.548;2023-01-19T08:21:33;13.80;49.00
24744;DHT22;12844;52.110;5.548;2023-01-19T08:24:00;13.80;49.00
24744;DHT22;12844;52.110;5.548;2023-01-19T08:26:34;13.70;49.00
24744;DHT22;12844;52.110;5.548;2023-01-19T08:29:02;13.80;49.00
24744;DHT22;12844;52.110;5.548;2023-01-19T08:31:28;13.80;49.10
24744;DHT22;12844;52.110;5.548;2023-01-19T08:33:54;13.70;49.00
24744;DHT22;12844;52.110;5.548;2023-01-19T08:36:21;13.70;49.00
24744;DHT22;12844;52.110;5.548;2023-01-19T08:38:53;13.70;49.10
24744;DHT22;12844;52.110;5.548;2023-01-19T08:41:18;13.80;49.10
24744;DHT22;12844;52.110;5.548;2023-01-19T08:43:44;13.70;49.10
24744;DHT22;12844;52.110;5.548;2023-01-19T08:46:10;13.70;49.10
24744;DHT22;12844;52.110;5.548;2023-01-19T08:48:36;13.70;49.10
24744;DHT22;12844;52.110;5.548;2023-01-19T08:51:02;13.70;49.20
24744;DHT22;12844;52.110;5.548;2023-01-19T08:53:27;13.70;49.10
24744;DHT22;12844;52.110;5.548;2023-01-19T08:55:57;13.70;49.20
24744;DHT22;12844;52.110;5.548;2023-01-19T08:58:25;13.70;49.10
24744;DHT22;12844;52.110;5.548;2023-01-19T09:00:51;13.70;49.20
24744;DHT22;12844;52.110;5.548;2023-01-19T09:03:17;13.70;49.30
24744;DHT22;12844;52.110;5.548;2023-01-19T09:05:43;13.70;49.30
24744;DHT22;12844;52.110;5.548;2023-01-19T09:08:10;13.70;49.30
24744;DHT22;12844;52.110;5.548;2023-01-19T09:10:43;13.60;49.50
24744;DHT22;12844;52.110;5.548;2023-01-19T09:13:10;13.50;49.80
24744;DHT22;12844;52.110;5.548;2023-01-19T09:15:39;13.40;50.20
24744;DHT22;12844;52.110;5.548;2023-01-19T09:18:12;13.30;50.40
24744;DHT22;12844;52.110;5.548;2023-01-19T09:20:42;13.30;50.50
24744;DHT22;12844;52.110;5.548;2023-01-19T09:23:10;13.30;51.00
24744;DHT22;12844;52.110;5.548;2023-01-19T09:25:37;13.40;50.90
24744;DHT22;12844;52.110;5.548;2023-01-19T09:28:06;13.40;50.10
24744;DHT22;12844;52.110;5.548;2023-01-19T09:30:33;13.40;50.10
24744;DHT22;12844;52.110;5.548;2023-01-19T09:33:05;13.50;50.10
24744;DHT22;12844;52.110;5.548;2023-01-19T09:35:35;13.50;50.00
24744;DHT22;12844;52.110;5.548;2023-01-19T09:38:01;13.50;49.80
24744;DHT22;12844;52.110;5.548;2023-01-19T09:40:27;13.50;49.70
24744;DHT22;12844;52.110;5.548;2023-01-19T09:42:55;13.50;49.70
24744;DHT22;12844;52.110;5.548;2023-01-19T09:45:43;13.50;49.80
24744;DHT22;12844;52.110;5.548;2023-01-19T09:56:29;13.60;49.80
24744;DHT22;12844;52.110;5.548;2023-01-19T09:58:55;13.70;49.80
24744;DHT22;12844;52.110;5.548;2023-01-19T10:04:36;13.80;49.80
24744;DHT22;12844;52.110;5.548;2023-01-19T10:07:59;13.80;49.80
24744;DHT22;12844;52.110;5.548;2023-01-19T10:10:32;13.80;49.80
24744;DHT22;12844;52.110;5.548;2023-01-19T10:19:16;13.90;49.80
24744;DHT22;12844;52.110;5.548;2023-01-19T10:21:45;13.90;49.90
24744;DHT22;12844;52.110;5.548;2023-01-19T10:24:29;13.90;49.80
24744;DHT22;12844;52.110;5.548;2023-01-19T10:26:58;14.00;49.70
24744;DHT22;12844;52.110;5.548;2023-01-19T10:29:35;14.00;49.80
24744;DHT22;12844;52.110;5.548;2023-01-19T10:32:13;14.00;49.70
24744;DHT22;12844;52.110;5.548;2023-01-19T10:34:39;14.00;49.70
24744;DHT22;12844;52.110;5.548;2023-01-19T10:37:27;14.00;49.60
24744;DHT22;12844;52.110;5.548;2023-01-19T10:42:39;14.00;49.50
24744;DHT22;12844;52.110;5.548;2023-01-19T10:45:19;14.10;49.60
24744;DHT22;12844;52.110;5.548;2023-01-19T10:47:46;14.10;49.50
24744;DHT22;12844;52.110;5.548;2023-01-19T10:50:36;14.10;49.50
24744;DHT22;12844;52.110;5.548;2023-01-19T10:53:04;14.10;49.50
24744;DHT22;12844;52.110;5.548;2023-01-19T10:55:33;14.20;49.50
24744;DHT22;12844;52.110;5.548;2023-01-19T10:58:02;14.20;49.50
24744;DHT22;12844;52.110;5.548;2023-01-19T11:00:37;14.20;49.40
24744;DHT22;12844;52.110;5.548;2023-01-19T11:03:23;14.20;49.40
24744;DHT22;12844;52.110;5.548;2023-01-19T11:05:49;14.20;49.30
24744;DHT22;12844;52.110;5.548;2023-01-19T11:08:28;14.20;49.40
24744;DHT22;12844;52.110;5.548;2023-01-19T11:10:58;14.20;49.40
24744;DHT22;12844;52.110;5.548;2023-01-19T11:13:26;14.20;49.40
24744;DHT22;12844;52.110;5.548;2023-01-19T11:16:16;14.20;49.40
24744;DHT22;12844;52.110;5.548;2023-01-19T11:18:42;14.20;49.40
24744;DHT22;12844;52.110;5.548;2023-01-19T11:21:14;14.10;49.40
24744;DHT22;12844;52.110;5.548;2023-01-19T11:26:09;14.20;49.50
24744;DHT22;12844;52.110;5.548;2023-01-19T11:28:44;14.20;49.50
24744;DHT22;12844;52.110;5.548;2023-01-19T11:31:41;14.20;49.50
24744;DHT22;12844;52.110;5.548;2023-01-19T11:34:34;14.10;49.30
24744;DHT22;12844;52.110;5.548;2023-01-19T11:39:30;14.10;49.40
24744;DHT22;12844;52.110;5.548;2023-01-19T11:42:00;14.10;49.40
24744;DHT22;12844;52.110;5.548;2023-01-19T11:44:35;14.20;49.40
24744;DHT22;12844;52.110;5.548;2023-01-19T11:47:14;14.20;49.50
24744;DHT22;12844;52.110;5.548;2023-01-19T11:49:50;14.20;49.30
24744;DHT22;12844;52.110;5.548;2023-01-19T11:52:38;14.20;49.30
24744;DHT22;12844;52.110;5.548;2023-01-19T11:55:40;14.20;49.30
24744;DHT22;12844;52.110;5.548;2023-01-19T11:58:13;14.20;49.30
24744;DHT22;12844;52.110;5.548;2023-01-19T12:00:50;14.20;49.40
24744;DHT22;12844;52.110;5.548;2023-01-19T12:05:54;14.20;49.50
24744;DHT22;12844;52.110;5.548;2023-01-19T12:08:27;14.20;49.40
24744;DHT22;12844;52.110;5.548;2023-01-19T12:10:56;14.20;50.10
24744;DHT22;12844;52.110;5.548;2023-01-19T12:13:25;14.20;49.50
24744;DHT22;12844;52.110;5.548;2023-01-19T12:16:03;14.20;49.40
24744;DHT22;12844;52.110;5.548;2023-01-19T12:18:41;14.20;49.40
24744;DHT22;12844;52.110;5.548;2023-01-19T12:21:08;14.20;49.30
24744;DHT22;12844;52.110;5.548;2023-01-19T12:24:10;14.10;49.30
24744;DHT22;12844;52.110;5.548;2023-01-19T12:26:37;14.20;49.30
24744;DHT22;12844;52.110;5.548;2023-01-19T12:29:16;14.10;49.30
24744;DHT22;12844;52.110;5.548;2023-01-19T12:31:42;14.10;49.50
24744;DHT22;12844;52.110;5.548;2023-01-19T12:34:27;14.10;49.40
24744;DHT22;12844;52.110;5.548;2023-01-19T12:37:06;14.10;49.40
24744;DHT22;12844;52.110;5.548;2023-01-19T12:39:51;14.10;49.40
24744;DHT22;12844;52.110;5.548;2023-01-19T12:42:17;14.10;49.40
24744;DHT22;12844;52.110;5.548;2023-01-19T12:44:44;14.10;49.40
24744;DHT22;12844;52.110;5.548;2023-01-19T12:49:40;14.10;49.50
24744;DHT22;12844;52.110;5.548;2023-01-19T12:52:27;14.10;49.50
24744;DHT22;12844;52.110;5.548;2023-01-19T13:00:25;14.10;49.50
24744;DHT22;12844;52.110;5.548;2023-01-19T13:02:57;14.10;49.50
24744;DHT22;12844;52.110;5.548;2023-01-19T13:05:51;14.10;49.60
24744;DHT22;12844;52.110;5.548;2023-01-19T13:11:12;14.00;49.50
24744;DHT22;12844;52.110;5.548;2023-01-19T13:24:09;14.10;49.50
24744;DHT22;12844;52.110;5.548;2023-01-19T13:43:37;14.00;49.50
24744;DHT22;12844;52.110;5.548;2023-01-19T13:46:04;14.00;49.50
24744;DHT22;12844;52.110;5.548;2023-01-19T13:48:31;14.00;49.50
24744;DHT22;12844;52.110;5.548;2023-01-19T13:50:59;14.00;49.50
24744;DHT22;12844;52.110;5.548;2023-01-19T13:53:25;14.00;49.50
24744;DHT22;12844;52.110;5.548;2023-01-19T13:56:17;14.00;49.50
24744;DHT22;12844;52.110;5.548;2023-01-19T13:59:04;14.00;49.50
24744;DHT22;12844;52.110;5.548;2023-01-19T14:01:34;14.00;49.60
24744;DHT22;12844;52.110;5.548;2023-01-19T14:03:59;14.00;49.50
24744;DHT22;12844;52.110;5.548;2023-01-19T14:09:15;14.00;49.50
24744;DHT22;12844;52.110;5.548;2023-01-19T14:11:46;14.00;49.50
24744;DHT22;12844;52.110;5.548;2023-01-19T14:14:22;14.00;49.50
24744;DHT22;12844;52.110;5.548;2023-01-19T14:16:48;14.00;49.50
24744;DHT22;12844;52.110;5.548;2023-01-19T14:19:14;14.10;49.50
24744;DHT22;12844;52.110;5.548;2023-01-19T14:21:40;14.10;49.50
24744;DHT22;12844;52.110;5.548;2023-01-19T14:24:15;14.00;49.50
24744;DHT22;12844;52.110;5.548;2023-01-19T14:26:45;14.00;49.60
24744;DHT22;12844;52.110;5.548;2023-01-19T14:32:11;14.00;49.60
24744;DHT22;12844;52.110;5.548;2023-01-19T14:34:40;14.00;49.50
24744;DHT22;12844;52.110;5.548;2023-01-19T14:37:24;14.00;50.20
24744;DHT22;12844;52.110;5.548;2023-01-19T14:39:59;14.00;49.60
24744;DHT22;12844;52.110;5.548;2023-01-19T14:42:32;14.00;49.70
24744;DHT22;12844;52.110;5.548;2023-01-19T14:45:00;14.00;49.70
24744;DHT22;12844;52.110;5.548;2023-01-19T14:49:59;14.00;49.70
24744;DHT22;12844;52.110;5.548;2023-01-19T14:52:37;14.00;49.70
24744;DHT22;12844;52.110;5.548;2023-01-19T14:55:03;14.00;49.80
24744;DHT22;12844;52.110;5.548;2023-01-19T14:57:35;14.00;49.80
24744;DHT22;12844;52.110;5.548;2023-01-19T15:00:11;14.00;50.30
24744;DHT22;12844;52.110;5.548;2023-01-19T15:02:36;14.00;49.70
24744;DHT22;12844;52.110;5.548;2023-01-19T15:05:02;14.00;49.70
24744;DHT22;12844;52.110;5.548;2023-01-19T15:07:27;14.00;49.70
24744;DHT22;12844;52.110;5.548;2023-01-19T15:09:53;14.00;49.70
24744;DHT22;12844;52.110;5.548;2023-01-19T15:12:20;14.00;49.80
24744;DHT22;12844;52.110;5.548;2023-01-19T15:14:48;14.00;49.70
24744;DHT22;12844;52.110;5.548;2023-01-19T15:17:16;14.10;49.70
24744;DHT22;12844;52.110;5.548;2023-01-19T15:19:53;14.00;49.70
24744;DHT22;12844;52.110;5.548;2023-01-19T15:22:19;14.10;49.70
24744;DHT22;12844;52.110;5.548;2023-01-19T15:24:47;14.00;49.70
24744;DHT22;12844;52.110;5.548;2023-01-19T15:27:12;14.00;49.70
24744;DHT22;12844;52.110;5.548;2023-01-19T15:29:38;14.00;49.70
24744;DHT22;12844;52.110;5.548;2023-01-19T15:32:13;14.10;49.70
24744;DHT22;12844;52.110;5.548;2023-01-19T15:34:39;14.00;49.90
24744;DHT22;12844;52.110;5.548;2023-01-19T15:37:05;14.00;49.80
24744;DHT22;12844;52.110;5.548;2023-01-19T15:39:30;14.00;49.80
24744;DHT22;12844;52.110;5.548;2023-01-19T15:41:56;14.00;49.80
24744;DHT22;12844;52.110;5.548;2023-01-19T15:44:22;14.00;49.80
24744;DHT22;12844;52.110;5.548;2023-01-19T15:46:47;14.00;49.80
24744;DHT22;12844;52.110;5.548;2023-01-19T15:49:13;14.00;49.70
24744;DHT22;12844;52.110;5.548;2023-01-19T15:51:38;14.10;49.80
24744;DHT22;12844;52.110;5.548;2023-01-19T15:54:04;14.00;49.70
24744;DHT22;12844;52.110;5.548;2023-01-19T15:56:30;14.00;49.70
24744;DHT22;12844;52.110;5.548;2023-01-19T15:58:56;14.00;49.70
24744;DHT22;12844;52.110;5.548;2023-01-19T16:01:24;14.10;49.70
24744;DHT22;12844;52.110;5.548;2023-01-19T16:04:01;14.10;49.60
24744;DHT22;12844;52.110;5.548;2023-01-19T16:06:28;14.10;49.50
24744;DHT22;12844;52.110;5.548;2023-01-19T16:08:55;14.10;49.30
24744;DHT22;12844;52.110;5.548;2023-01-19T16:11:26;14.10;49.10
24744;DHT22;12844;52.110;5.548;2023-01-19T16:13:53;14.20;49.10
24744;DHT22;12844;52.110;5.548;2023-01-19T16:16:20;14.20;48.80
24744;DHT22;12844;52.110;5.548;2023-01-19T16:18:46;14.20;48.70
24744;DHT22;12844;52.110;5.548;2023-01-19T16:21:12;14.20;48.80
24744;DHT22;12844;52.110;5.548;2023-01-19T16:23:38;14.20;48.70
24744;DHT22;12844;52.110;5.548;2023-01-19T16:26:25;14.20;48.70
24744;DHT22;12844;52.110;5.548;2023-01-19T16:28:51;14.20;48.50
24744;DHT22;12844;52.110;5.548;2023-01-19T16:31:16;14.20;48.50
24744;DHT22;12844;52.110;5.548;2023-01-19T16:33:43;14.20;48.60
24744;DHT22;12844;52.110;5.548;2023-01-19T16:38:47;14.20;48.50
24744;DHT22;12844;52.110;5.548;2023-01-19T16:41:12;14.20;48.60
24744;DHT22;12844;52.110;5.548;2023-01-19T16:43:38;14.20;48.60
24744;DHT22;12844;52.110;5.548;2023-01-19T16:46:03;14.20;48.70
24744;DHT22;12844;52.110;5.548;2023-01-19T16:48:29;14.10;48.70
24744;DHT22;12844;52.110;5.548;2023-01-19T16:51:01;14.20;48.80
24744;DHT22;12844;52.110;5.548;2023-01-19T16:53:27;14.10;48.70
24744;DHT22;12844;52.110;5.548;2023-01-19T16:55:53;14.10;48.70
24744;DHT22;12844;52.110;5.548;2023-01-19T16:58:19;14.20;48.70
24744;DHT22;12844;52.110;5.548;2023-01-19T17:00:44;14.10;48.80
24744;DHT22;12844;52.110;5.548;2023-01-19T17:03:10;14.10;48.80
24744;DHT22;12844;52.110;5.548;2023-01-19T17:05:35;14.10;48.70
24744;DHT22;12844;52.110;5.548;2023-01-19T17:08:01;14.10;48.80
24744;DHT22;12844;52.110;5.548;2023-01-19T17:10:26;14.10;48.80